Time;durP1;ratioP1;P1;durP2;ratioP2;P2;SDS_P1;SDS_P2;PMS_P1;PMS_P2;Temp;Humidity;BMP_temperature;BMP_pressure;BME280_temperature;BME280_humidity;BME280_pressure;Samples;Min_cycle;Max_cycle;Signal;HPM_P1;HPM_P2
2022/04/16 00:02:27;;;;;;;9.00;7.07;;;6.50;99.90;;;;;;4997526;28;20542;-69
2022/04/16 00:05:17;;;;;;;9.60;7.10;;;6.40;99.90;;;;;;4997084;28;20543;-69
2022/04/16 00:08:08;;;;;;;8.03;7.00;;;6.40;99.90;;;;;;4997899;28;20873;-70
2022/04/16 00:10:56;;;;;;;8.70;6.80;;;6.40;99.90;;;;;;4998899;28;21538;-69
2022/04/16 00:13:46;;;;;;;7.40;6.60;;;6.30;99.90;;;;;;4999663;28;20538;-69
2022/04/16 00:16:34;;;;;;;7.87;5.93;;;6.20;99.90;;;;;;4998756;28;20456;-69
2022/04/16 00:19:23;;;;;;;7.50;6.80;;;6.20;99.90;;;;;;4993591;28;20984;-68
2022/04/16 00:22:13;;;;;;;9.43;7.57;;;6.20;99.90;;;;;;5001346;28;20455;-68
2022/04/16 00:25:01;;;;;;;6.80;6.10;;;6.10;99.90;;;;;;5001861;28;20554;-69
2022/04/16 00:27:50;;;;;;;8.17;6.97;;;6.10;99.90;;;;;;4999930;28;20507;-69
2022/04/16 00:30:39;;;;;;;6.83;6.23;;;6.10;99.90;;;;;;4998151;28;20975;-69
2022/04/16 00:33:30;;;;;;;6.63;5.77;;;6.10;99.90;;;;;;4981494;28;20499;-69
2022/04/16 00:36:18;;;;;;;6.53;5.57;;;6.10;99.90;;;;;;4998540;28;20871;-69
2022/04/16 00:39:08;;;;;;;6.30;5.70;;;6.10;99.90;;;;;;4999268;28;20472;-69
2022/04/16 00:41:56;;;;;;;7.10;5.50;;;6.00;99.90;;;;;;4999773;28;20509;-69
2022/04/16 00:44:44;;;;;;;8.03;5.30;;;6.00;99.90;;;;;;4999286;28;20631;-69
2022/04/16 00:47:32;;;;;;;6.80;6.00;;;6.00;99.90;;;;;;4998687;28;20551;-69
2022/04/16 00:50:21;;;;;;;7.27;5.90;;;5.90;99.90;;;;;;4996176;28;21068;-69
2022/04/16 00:53:09;;;;;;;6.13;5.60;;;5.90;99.90;;;;;;5003760;28;20602;-70
2022/04/16 00:55:59;;;;;;;7.77;5.70;;;5.90;99.90;;;;;;4998833;28;20970;-69
2022/04/16 00:58:48;;;;;;;6.20;5.60;;;5.80;99.90;;;;;;5000134;28;20479;-70
2022/04/16 01:01:36;;;;;;;5.57;4.80;;;5.80;99.90;;;;;;4995183;28;20471;-69
2022/04/16 01:04:25;;;;;;;5.80;5.30;;;5.80;99.90;;;;;;4998207;28;20512;-69
2022/04/16 01:07:13;;;;;;;8.07;5.50;;;5.70;99.90;;;;;;4997784;28;20969;-69
2022/04/16 01:10:02;;;;;;;6.40;5.80;;;5.70;99.90;;;;;;5000938;28;20563;-69
2022/04/16 01:12:52;;;;;;;6.50;5.90;;;5.60;99.90;;;;;;4996320;28;20614;-69
2022/04/16 01:15:41;;;;;;;6.00;5.40;;;5.50;99.90;;;;;;4998799;28;20460;-69
2022/04/16 01:18:29;;;;;;;6.70;5.10;;;5.50;99.90;;;;;;4996572;28;21161;-70
2022/04/16 01:21:18;;;;;;;8.60;6.43;;;5.40;99.90;;;;;;4982866;28;20545;-69
2022/04/16 01:24:09;;;;;;;5.33;4.83;;;5.40;99.90;;;;;;4997715;28;20488;-69
2022/04/16 01:26:58;;;;;;;5.90;5.40;;;5.30;99.90;;;;;;4998267;28;20607;-69
2022/04/16 01:29:47;;;;;;;8.80;5.60;;;5.30;99.90;;;;;;4997492;28;20480;-69
2022/04/16 01:32:37;;;;;;;6.63;4.93;;;5.20;99.90;;;;;;4998129;28;20484;-69
2022/04/16 01:35:25;;;;;;;5.77;4.93;;;5.20;99.90;;;;;;4999825;28;20444;-69
2022/04/16 01:38:13;;;;;;;5.50;5.00;;;5.20;99.90;;;;;;4999121;28;20602;-69
2022/04/16 01:41:03;;;;;;;7.03;5.00;;;5.10;99.90;;;;;;4999446;28;20539;-69
2022/04/16 01:43:51;;;;;;;8.07;5.50;;;5.00;99.90;;;;;;4995289;28;20509;-69
2022/04/16 01:46:40;;;;;;;5.50;4.97;;;4.90;99.90;;;;;;4996551;28;20622;-69
2022/04/16 01:49:28;;;;;;;7.30;5.80;;;4.90;99.90;;;;;;5004593;28;20873;-68
2022/04/16 01:52:16;;;;;;;4.73;4.33;;;4.90;99.90;;;;;;5004611;28;21866;-68
2022/04/16 01:55:06;;;;;;;5.80;5.00;;;4.80;99.90;;;;;;5004041;28;20539;-69
2022/04/16 01:57:55;;;;;;;5.97;5.37;;;4.80;99.90;;;;;;5006221;28;20531;-69
2022/04/16 02:00:43;;;;;;;5.73;5.13;;;4.70;99.90;;;;;;5002658;28;20477;-68
2022/04/16 02:03:33;;;;;;;5.53;5.07;;;4.70;99.90;;;;;;5004310;28;21186;-69
2022/04/16 02:06:21;;;;;;;5.67;5.13;;;4.60;99.90;;;;;;5004006;28;20575;-69
2022/04/16 02:09:09;;;;;;;6.27;5.30;;;4.50;99.90;;;;;;5004022;28;21141;-69
2022/04/16 02:11:57;;;;;;;6.20;5.60;;;4.50;99.90;;;;;;5002479;28;20463;-70
2022/04/16 02:14:46;;;;;;;5.63;5.13;;;4.50;99.90;;;;;;5001595;28;21002;-70
2022/04/16 02:17:36;;;;;;;6.17;5.60;;;4.40;99.90;;;;;;5002833;28;20568;-69
2022/04/16 02:20:24;;;;;;;5.83;5.20;;;4.40;99.90;;;;;;5005221;28;20547;-70
2022/04/16 02:23:12;;;;;;;6.37;5.37;;;4.40;99.90;;;;;;4998403;28;20860;-70
2022/04/16 02:26:02;;;;;;;6.27;5.23;;;4.30;99.90;;;;;;4997917;28;20516;-69
2022/04/16 02:28:50;;;;;;;5.43;4.93;;;4.30;99.90;;;;;;5002687;28;20507;-69
2022/04/16 02:31:40;;;;;;;5.03;4.53;;;4.30;99.90;;;;;;5001096;28;20572;-70
2022/04/16 02:34:28;;;;;;;5.43;4.87;;;4.20;99.90;;;;;;5004447;28;20476;-70
2022/04/16 02:37:16;;;;;;;4.80;4.40;;;4.20;99.90;;;;;;5003430;28;20448;-70
2022/04/16 02:40:06;;;;;;;5.67;5.17;;;4.20;99.90;;;;;;5003770;28;20475;-70
2022/04/16 02:42:54;;;;;;;5.90;4.67;;;4.10;99.90;;;;;;5003972;28;20972;-70
2022/04/16 02:48:49;;;;;;;5.97;4.70;;;4.10;99.90;;;;;;5004431;28;20570;-69
2022/04/16 02:51:40;;;;;;;5.00;3.83;;;4.00;99.90;;;;;;5005057;28;20662;-70
2022/04/16 02:54:28;;;;;;;7.10;4.60;;;4.00;99.90;;;;;;5002192;28;20587;-70
2022/04/16 02:57:16;;;;;;;5.00;4.50;;;4.00;99.90;;;;;;5003597;28;20449;-69
2022/04/16 03:00:06;;;;;;;5.00;4.60;;;3.90;99.90;;;;;;5003016;28;20558;-70
2022/04/16 03:02:55;;;;;;;5.63;4.70;;;3.90;99.90;;;;;;5004490;28;20475;-69
2022/04/16 03:05:44;;;;;;;4.33;3.93;;;3.80;99.90;;;;;;5004362;28;20595;-69
2022/04/16 03:08:32;;;;;;;5.43;4.37;;;3.80;99.90;;;;;;5003892;28;20598;-70
2022/04/16 03:11:21;;;;;;;5.40;3.90;;;3.70;99.90;;;;;;5002627;28;20446;-69
2022/04/16 03:20:20;;;;;;;4.60;4.20;;;3.70;99.90;;;;;;5001913;28;20513;-71
2022/04/16 03:23:10;;;;;;;4.70;4.30;;;3.60;99.90;;;;;;5004625;28;20488;-70
2022/04/16 03:26:00;;;;;;;4.50;4.13;;;3.50;99.90;;;;;;5002983;28;20571;-70
2022/04/16 03:28:48;;;;;;;4.90;4.33;;;3.50;99.90;;;;;;5002490;28;20491;-70
2022/04/16 03:31:36;;;;;;;4.50;4.07;;;3.50;99.90;;;;;;5002139;28;20461;-70
2022/04/16 03:34:24;;;;;;;5.13;4.30;;;3.40;99.90;;;;;;4999808;28;20556;-70
2022/04/16 03:37:13;;;;;;;4.37;3.97;;;3.40;99.90;;;;;;5003636;28;21055;-70
2022/04/16 03:40:02;;;;;;;4.37;3.97;;;3.40;99.90;;;;;;4993465;28;20468;-70
2022/04/16 03:42:52;;;;;;;5.93;4.27;;;3.30;99.90;;;;;;5001898;28;21554;-70
2022/04/16 03:45:41;;;;;;;5.03;4.13;;;3.30;99.90;;;;;;5002772;28;20477;-70
2022/04/16 03:48:29;;;;;;;4.30;3.90;;;3.30;99.90;;;;;;5001606;28;20648;-70
2022/04/16 03:51:17;;;;;;;5.17;4.10;;;3.20;99.90;;;;;;5004415;28;21083;-70
2022/04/16 04:00:17;;;;;;;3.93;3.53;;;3.10;99.90;;;;;;5001386;28;21019;-70
2022/04/16 04:03:05;;;;;;;4.00;3.70;;;3.20;99.90;;;;;;4999866;28;20591;-70
2022/04/16 04:05:54;;;;;;;3.90;3.60;;;3.10;99.90;;;;;;5001796;28;20805;-70
2022/04/16 04:08:43;;;;;;;4.17;3.80;;;3.10;99.90;;;;;;4996387;28;20476;-70
2022/04/16 04:11:31;;;;;;;5.77;3.93;;;3.00;99.90;;;;;;5002250;28;20578;-70
2022/04/16 04:14:20;;;;;;;4.07;3.43;;;3.00;99.90;;;;;;5003040;28;20980;-70
2022/04/16 04:17:09;;;;;;;4.47;3.33;;;3.00;99.90;;;;;;5003592;28;20883;-70
2022/04/16 04:19:57;;;;;;;4.13;3.73;;;3.00;99.90;;;;;;5000309;28;20480;-69
2022/04/16 04:22:45;;;;;;;5.93;3.50;;;3.00;99.90;;;;;;5005294;28;20500;-69
2022/04/16 04:25:34;;;;;;;4.27;3.63;;;3.00;99.90;;;;;;4988783;28;20527;-69
2022/04/16 04:28:22;;;;;;;4.13;3.73;;;2.90;99.90;;;;;;5000273;28;20562;-69
2022/04/16 04:31:11;;;;;;;3.73;3.50;;;2.90;99.90;;;;;;5002027;28;20459;-69
2022/04/16 04:33:59;;;;;;;3.80;3.50;;;2.90;99.90;;;;;;4991202;28;20579;-69
2022/04/16 04:36:48;;;;;;;5.57;3.23;;;2.90;99.90;;;;;;4999258;28;20563;-69
2022/04/16 04:39:36;;;;;;;4.50;3.80;;;2.80;99.90;;;;;;4998681;28;20544;-69
2022/04/16 04:42:24;;;;;;;3.93;3.60;;;2.80;99.90;;;;;;5000018;28;20610;-68
2022/04/16 04:45:14;;;;;;;4.50;3.47;;;2.80;99.90;;;;;;5003489;28;20472;-69
2022/04/16 04:48:04;;;;;;;4.17;3.73;;;2.80;99.90;;;;;;4998890;28;20464;-69
2022/04/16 04:50:52;;;;;;;4.90;3.47;;;2.80;99.90;;;;;;4999267;28;20556;-69
2022/04/16 04:53:40;;;;;;;5.90;3.47;;;2.80;99.90;;;;;;4999410;28;20563;-68
2022/04/16 04:56:29;;;;;;;4.07;3.73;;;2.90;99.90;;;;;;5002277;28;20465;-68
2022/04/16 04:59:17;;;;;;;3.33;3.03;;;2.90;99.90;;;;;;4995661;28;20504;-69
2022/04/16 05:02:06;;;;;;;4.20;3.80;;;2.90;99.90;;;;;;4998606;28;20496;-69
2022/04/16 05:04:58;;;;;;;5.33;3.63;;;3.00;99.90;;;;;;4999610;28;21075;-69
2022/04/16 05:07:46;;;;;;;3.83;3.43;;;3.00;99.90;;;;;;5000680;28;20476;-69
2022/04/16 05:10:34;;;;;;;3.33;3.10;;;3.00;99.90;;;;;;4999717;28;20476;-69
2022/04/16 05:13:22;;;;;;;5.10;3.70;;;3.00;99.90;;;;;;4999254;28;21370;-69
2022/04/16 05:16:12;;;;;;;4.60;3.53;;;3.00;99.90;;;;;;4984797;28;20456;-71
2022/04/16 05:19:00;;;;;;;3.80;3.50;;;3.10;99.90;;;;;;5002345;28;20521;-70
2022/04/16 05:21:50;;;;;;;3.97;3.57;;;3.10;99.90;;;;;;5003369;28;20492;-69
2022/04/16 05:24:38;;;;;;;3.90;3.57;;;3.20;99.90;;;;;;4999924;28;20578;-68
2022/04/16 05:27:26;;;;;;;3.70;3.40;;;3.30;99.90;;;;;;4996842;28;20558;-68
2022/04/16 05:30:22;;;;;;;3.93;3.10;;;3.30;99.90;;;;;;4997356;28;20554;-69
2022/04/16 05:34:18;;;;;;;4.00;3.40;;;3.40;99.90;;;;;;4999840;28;20477;-68
2022/04/16 05:36:22;;;;;;;4.50;3.90;;;3.40;99.90;;;;;;4998068;28;20542;-68
2022/04/16 05:39:11;;;;;;;4.30;3.13;;;3.50;99.90;;;;;;4999983;28;20561;-68
2022/04/16 05:41:59;;;;;;;3.83;3.47;;;3.60;99.90;;;;;;4999941;28;20647;-68
2022/04/16 05:44:47;;;;;;;3.77;3.33;;;3.60;99.90;;;;;;5000051;28;20961;-69
2022/04/16 05:47:36;;;;;;;3.90;3.60;;;3.70;99.90;;;;;;4997527;28;20935;-69
2022/04/16 05:50:24;;;;;;;5.67;3.27;;;3.70;99.90;;;;;;4991500;28;20510;-69
2022/04/16 05:53:14;;;;;;;3.27;2.97;;;3.80;99.90;;;;;;4996292;28;20608;-69
2022/04/16 05:56:04;;;;;;;4.07;2.90;;;3.90;99.90;;;;;;4999018;28;20992;-69
2022/04/16 05:58:52;;;;;;;4.10;3.00;;;4.00;99.90;;;;;;4997290;28;20484;-69
2022/04/16 06:01:41;;;;;;;3.50;3.20;;;4.10;99.90;;;;;;4995467;28;20527;-68
2022/04/16 06:04:30;;;;;;;3.23;2.93;;;4.20;99.90;;;;;;4991140;28;20487;-69
2022/04/16 06:07:18;;;;;;;2.70;2.50;;;4.30;99.90;;;;;;4996784;28;20642;-68
2022/04/16 06:10:07;;;;;;;3.17;2.77;;;4.40;99.90;;;;;;4994682;28;20481;-69
2022/04/16 06:12:57;;;;;;;2.77;2.30;;;4.60;99.90;;;;;;4996723;28;20653;-69
2022/04/16 06:15:45;;;;;;;4.33;2.60;;;4.60;99.90;;;;;;4995247;28;20555;-69
2022/04/16 06:18:33;;;;;;;3.07;2.70;;;4.70;99.90;;;;;;4994914;28;20496;-69
2022/04/16 06:21:21;;;;;;;4.20;2.30;;;4.80;99.90;;;;;;4991731;28;20551;-68
2022/04/16 06:24:09;;;;;;;2.63;2.43;;;4.90;99.90;;;;;;4992894;28;20571;-69
2022/04/16 06:26:58;;;;;;;2.60;2.30;;;5.00;99.90;;;;;;4995187;28;20559;-69
2022/04/16 06:29:47;;;;;;;2.40;2.20;;;5.00;99.90;;;;;;4990185;28;20658;-69
2022/04/16 06:32:36;;;;;;;2.33;2.13;;;5.10;99.90;;;;;;4995715;28;21205;-68
2022/04/16 06:35:24;;;;;;;3.60;2.63;;;5.20;99.90;;;;;;4999799;28;20512;-70
2022/04/16 06:38:12;;;;;;;2.27;2.07;;;5.30;99.90;;;;;;4995479;28;20551;-69
2022/04/16 06:41:00;;;;;;;4.27;2.07;;;5.40;99.90;;;;;;4999094;28;20518;-69
2022/04/16 06:43:48;;;;;;;2.50;2.10;;;5.50;99.90;;;;;;4998458;28;20523;-69
2022/04/16 06:46:38;;;;;;;1.67;1.57;;;5.60;99.90;;;;;;4993412;28;20821;-69
2022/04/16 06:49:26;;;;;;;2.33;1.73;;;5.60;99.90;;;;;;4995882;28;20564;-69
2022/04/16 06:52:14;;;;;;;1.80;1.70;;;5.70;99.90;;;;;;5001370;28;20539;-69
2022/04/16 06:55:03;;;;;;;2.30;2.10;;;5.80;99.90;;;;;;4997675;28;20519;-69
2022/04/16 06:57:51;;;;;;;2.30;1.90;;;5.80;99.90;;;;;;4998098;28;20468;-69
2022/04/16 07:00:39;;;;;;;2.50;2.20;;;5.90;99.90;;;;;;4991477;28;20492;-69
2022/04/16 07:03:28;;;;;;;2.30;2.00;;;6.00;99.90;;;;;;4995126;28;20472;-70
2022/04/16 07:06:17;;;;;;;1.90;1.80;;;6.10;99.90;;;;;;4995472;28;20554;-70
2022/04/16 07:09:05;;;;;;;2.77;1.93;;;6.20;99.90;;;;;;4991499;28;22088;-70
2022/04/16 07:11:53;;;;;;;2.00;1.73;;;6.20;99.90;;;;;;5001370;28;20449;-70
2022/04/16 07:14:41;;;;;;;4.73;1.83;;;6.30;99.90;;;;;;4996091;28;21082;-70
2022/04/16 07:17:29;;;;;;;2.47;1.50;;;6.40;99.90;;;;;;4996093;28;20457;-69
2022/04/16 07:20:19;;;;;;;1.67;1.43;;;6.50;99.90;;;;;;4983937;28;20460;-70
2022/04/16 07:23:07;;;;;;;1.40;1.30;;;6.60;99.90;;;;;;4991913;28;20559;-70
2022/04/16 07:25:56;;;;;;;1.83;1.73;;;6.60;99.90;;;;;;4994210;28;20465;-70
2022/04/16 07:28:44;;;;;;;2.00;1.47;;;6.70;99.90;;;;;;4990253;28;21520;-70
2022/04/16 07:31:32;;;;;;;1.80;1.30;;;6.80;99.90;;;;;;4996425;28;20465;-69
2022/04/16 07:34:20;;;;;;;1.43;1.33;;;6.90;99.90;;;;;;4993391;28;20538;-69
2022/04/16 07:37:10;;;;;;;1.63;1.40;;;7.00;99.90;;;;;;4996535;28;20456;-69
2022/04/16 07:39:58;;;;;;;1.33;1.23;;;7.10;99.90;;;;;;4994721;28;20520;-69
2022/04/16 07:42:46;;;;;;;1.30;1.10;;;7.20;99.90;;;;;;4994023;28;20508;-69
2022/04/16 07:45:35;;;;;;;1.20;1.10;;;7.20;99.90;;;;;;4992338;28;20555;-69
2022/04/16 07:48:30;;;;;;;1.20;1.10;;;7.30;99.90;;;;;;4993399;28;21489;-69
2022/04/16 07:51:18;;;;;;;2.00;1.33;;;7.40;99.90;;;;;;4994288;28;20534;-69
2022/04/16 07:54:08;;;;;;;1.80;1.47;;;7.40;99.90;;;;;;4981356;28;20611;-69
2022/04/16 07:56:56;;;;;;;1.20;1.20;;;7.50;99.90;;;;;;4988605;28;20460;-69
2022/04/16 07:59:44;;;;;;;1.53;1.43;;;7.60;99.90;;;;;;4963232;28;20505;-69
2022/04/16 08:02:33;;;;;;;1.60;1.50;;;7.70;99.90;;;;;;4984813;28;21066;-69
2022/04/16 08:05:21;;;;;;;2.20;1.37;;;7.80;99.90;;;;;;4992541;28;20491;-69
2022/04/16 08:08:15;;;;;;;2.37;1.60;;;7.90;99.90;;;;;;4999686;28;20476;-69
2022/04/16 08:11:04;;;;;;;1.50;1.40;;;8.00;99.90;;;;;;4983447;28;20588;-70
2022/04/16 08:13:53;;;;;;;1.40;1.30;;;8.10;99.90;;;;;;4975213;28;20559;-70
2022/04/16 08:16:41;;;;;;;1.30;1.20;;;8.20;99.90;;;;;;5000129;28;20535;-69
2022/04/16 08:19:29;;;;;;;1.60;1.50;;;8.30;99.90;;;;;;5003023;28;20464;-69
2022/04/16 08:22:21;;;;;;;1.30;1.20;;;8.30;99.90;;;;;;4998751;28;21566;-67
2022/04/16 08:28:16;;;;;;;1.70;1.10;;;8.50;99.90;;;;;;5001020;28;20559;-69
2022/04/16 08:31:04;;;;;;;1.40;1.30;;;8.50;99.90;;;;;;5002683;28;20572;-70
2022/04/16 08:33:53;;;;;;;1.20;1.10;;;8.70;99.90;;;;;;5003426;28;20482;-70
2022/04/16 08:36:41;;;;;;;1.10;1.07;;;8.80;99.90;;;;;;5003514;28;20484;-70
2022/04/16 08:39:29;;;;;;;1.30;1.20;;;8.80;99.90;;;;;;5004001;28;20615;-70
2022/04/16 08:42:18;;;;;;;1.60;1.23;;;8.90;99.90;;;;;;5002614;28;20463;-69
2022/04/16 08:45:09;;;;;;;1.30;1.10;;;8.90;99.90;;;;;;5003892;28;20547;-69
2022/04/16 08:47:57;;;;;;;1.17;1.07;;;9.00;99.90;;;;;;5003766;28;22523;-69
2022/04/16 08:50:47;;;;;;;1.20;1.17;;;9.10;99.90;;;;;;5003505;28;20592;-70
2022/04/16 08:53:36;;;;;;;1.20;1.10;;;9.20;99.90;;;;;;5004999;28;21060;-70
2022/04/16 08:56:24;;;;;;;1.53;1.00;;;9.30;99.90;;;;;;5002921;28;20953;-70
2022/04/16 08:59:12;;;;;;;1.57;1.30;;;9.40;99.90;;;;;;5003258;28;20542;-70
2022/04/16 09:02:01;;;;;;;1.07;1.03;;;9.40;99.90;;;;;;5003352;28;20624;-70
2022/04/16 09:05:00;;;;;;;2.00;0.93;;;9.50;99.90;;;;;;5003376;28;20633;-70
2022/04/16 09:07:50;;;;;;;1.40;1.03;;;9.50;99.90;;;;;;5003057;28;20981;-70
2022/04/16 09:10:43;;;;;;;3.23;1.30;;;9.60;99.90;;;;;;5004265;28;20561;-70
2022/04/16 09:13:31;;;;;;;1.43;1.23;;;9.60;99.90;;;;;;5003187;28;20587;-70
2022/04/16 09:16:20;;;;;;;1.40;1.30;;;9.70;99.90;;;;;;5002852;28;21397;-70
2022/04/16 09:19:16;;;;;;;1.33;1.23;;;9.70;99.90;;;;;;5001717;28;20480;-70
2022/04/16 09:22:04;;;;;;;3.30;1.53;;;9.80;99.90;;;;;;5001036;28;20596;-70
2022/04/16 09:24:53;;;;;;;1.10;1.00;;;9.90;99.90;;;;;;5003950;28;21014;-70
2022/04/16 09:27:42;;;;;;;1.53;1.13;;;9.90;99.90;;;;;;5005391;28;20901;-70
2022/04/16 09:30:32;;;;;;;1.40;1.30;;;10.00;99.90;;;;;;5003608;28;20511;-70
2022/04/16 09:33:21;;;;;;;2.50;1.13;;;10.10;99.90;;;;;;5000567;28;20473;-71
2022/04/16 09:36:10;;;;;;;1.47;1.37;;;10.20;99.90;;;;;;5002330;28;20519;-70
2022/04/16 09:39:03;;;;;;;1.53;1.13;;;10.30;99.90;;;;;;5002661;28;20903;-70
2022/04/16 09:41:56;;;;;;;1.10;1.10;;;10.30;99.90;;;;;;5003245;28;20508;-70
2022/04/16 09:44:45;;;;;;;1.10;1.00;;;10.40;99.90;;;;;;5002803;28;20567;-70
2022/04/16 09:47:35;;;;;;;1.33;1.23;;;10.40;99.90;;;;;;5001570;28;20659;-70
2022/04/16 09:50:25;;;;;;;2.30;1.40;;;10.50;99.90;;;;;;5002485;28;20500;-70
2022/04/16 09:53:16;;;;;;;1.67;1.37;;;10.60;99.90;;;;;;5004057;28;20476;-70
2022/04/16 09:56:11;;;;;;;1.10;1.00;;;10.70;99.90;;;;;;5002641;28;20645;-70
2022/04/16 09:59:02;;;;;;;1.10;1.10;;;10.80;99.90;;;;;;5002008;28;20469;-70
2022/04/16 10:01:50;;;;;;;1.50;1.40;;;10.80;99.90;;;;;;5003614;28;20449;-70
2022/04/16 10:04:39;;;;;;;2.07;1.60;;;10.90;99.90;;;;;;5001180;28;20787;-70
2022/04/16 10:07:28;;;;;;;1.50;1.40;;;10.90;99.90;;;;;;5006437;28;20459;-69
2022/04/16 10:10:25;;;;;;;1.90;1.80;;;10.90;99.90;;;;;;5006480;28;20564;-71
2022/04/16 10:13:15;;;;;;;1.60;1.50;;;10.90;99.90;;;;;;5005384;28;20624;-70
2022/04/16 10:16:12;;;;;;;1.40;1.30;;;11.00;99.90;;;;;;5005174;28;20440;-70
2022/04/16 10:19:00;;;;;;;1.77;1.67;;;11.10;99.90;;;;;;5006146;28;20567;-70
2022/04/16 10:21:54;;;;;;;1.70;1.60;;;11.20;99.90;;;;;;5005922;28;20600;-71
2022/04/16 10:24:48;;;;;;;1.53;1.43;;;11.30;99.90;;;;;;5005420;28;20915;-70
2022/04/16 10:27:41;;;;;;;1.80;1.60;;;11.30;99.90;;;;;;5007996;28;20472;-70
2022/04/16 10:30:38;;;;;;;1.80;1.70;;;11.30;99.90;;;;;;5019071;28;20476;-69
2022/04/16 10:33:27;;;;;;;2.70;1.70;;;11.30;99.90;;;;;;5003925;28;20575;-70
2022/04/16 10:36:25;;;;;;;1.90;1.80;;;11.50;99.90;;;;;;5008005;28;20452;-69
2022/04/16 10:39:15;;;;;;;2.00;1.80;;;11.50;99.90;;;;;;5006272;28;20550;-70
2022/04/16 10:42:05;;;;;;;2.30;1.83;;;11.60;99.90;;;;;;4992149;28;20468;-70
2022/04/16 10:44:55;;;;;;;1.93;1.77;;;11.60;99.90;;;;;;5004087;28;20617;-70
2022/04/16 10:47:45;;;;;;;2.13;1.90;;;11.60;99.90;;;;;;5004853;28;20488;-70
2022/04/16 10:50:33;;;;;;;2.17;1.97;;;11.60;99.90;;;;;;5004458;28;20488;-70
2022/04/16 10:53:28;;;;;;;2.23;2.00;;;11.70;99.90;;;;;;5006589;28;20579;-69
2022/04/16 10:56:18;;;;;;;1.97;1.87;;;11.90;99.90;;;;;;5006398;28;20554;-69
2022/04/16 10:59:07;;;;;;;2.00;1.90;;;11.90;99.90;;;;;;5006541;28;20480;-70
2022/04/16 11:01:58;;;;;;;2.37;2.17;;;11.90;99.90;;;;;;5007195;28;20585;-71
2022/04/16 11:04:56;;;;;;;2.73;2.20;;;12.00;99.90;;;;;;5005121;28;20509;-69
2022/04/16 11:07:47;;;;;;;2.90;2.40;;;12.10;99.90;;;;;;5007866;28;20638;-69
2022/04/16 11:10:35;;;;;;;2.30;2.00;;;12.20;99.90;;;;;;5006701;28;20807;-70
2022/04/16 11:13:23;;;;;;;2.00;1.90;;;12.20;99.90;;;;;;5007044;28;20527;-70
2022/04/16 11:16:12;;;;;;;1.90;1.80;;;12.30;99.90;;;;;;5005844;28;20478;-70
2022/04/16 11:19:11;;;;;;;2.33;2.03;;;12.30;99.90;;;;;;5004059;28;20964;-70
2022/04/16 11:22:00;;;;;;;3.23;2.70;;;12.30;99.90;;;;;;5007297;28;20448;-70
2022/04/16 11:24:49;;;;;;;3.07;2.77;;;12.50;99.90;;;;;;5004869;28;20495;-70
2022/04/16 11:36:56;;;;;;;24.47;22.23;;;13.00;99.90;;;;;;5004766;28;20949;-70
2022/04/16 11:39:45;;;;;;;4.80;4.40;;;13.10;99.90;;;;;;5006376;28;20929;-70
2022/04/16 11:42:34;;;;;;;3.93;3.60;;;13.20;99.90;;;;;;5005312;28;20473;-70
2022/04/16 11:45:22;;;;;;;119.20;108.70;;;13.40;99.90;;;;;;5006931;28;20448;-70
2022/04/16 11:48:10;;;;;;;83.10;70.47;;;13.50;99.90;;;;;;5004206;28;21019;-70
2022/04/16 11:50:58;;;;;;;9.50;8.60;;;13.60;99.90;;;;;;5006999;28;21225;-70
2022/04/16 11:53:53;;;;;;;2.93;2.30;;;13.80;99.90;;;;;;5006854;28;20935;-70
2022/04/16 11:56:50;;;;;;;2.00;1.90;;;13.90;99.90;;;;;;5004571;28;21048;-70
2022/04/16 11:59:40;;;;;;;48.23;43.20;;;14.00;99.90;;;;;;5005344;28;21020;-70
2022/04/16 12:02:33;;;;;;;192.00;172.57;;;14.10;99.90;;;;;;5005673;28;20506;-71
2022/04/16 12:05:26;;;;;;;106.90;96.30;;;14.20;99.90;;;;;;5004368;28;21529;-70
2022/04/16 12:08:16;;;;;;;26.93;24.53;;;14.30;99.90;;;;;;5005941;28;21027;-70
2022/04/16 12:11:06;;;;;;;27.30;25.40;;;14.50;99.90;;;;;;5006726;28;20741;-70
2022/04/16 12:13:55;;;;;;;32.37;30.20;;;14.60;99.90;;;;;;5006197;28;20586;-71
2022/04/16 12:16:43;;;;;;;3.87;3.57;;;14.70;99.90;;;;;;5006138;28;20539;-71
2022/04/16 12:19:32;;;;;;;2.40;1.70;;;14.90;99.90;;;;;;5005207;28;20531;-70
2022/04/16 12:22:20;;;;;;;1.93;1.83;;;14.90;99.90;;;;;;5003323;28;21393;-70
2022/04/16 12:25:10;;;;;;;4.60;4.20;;;15.00;99.90;;;;;;5004588;28;20525;-70
2022/04/16 12:28:01;;;;;;;3.27;2.87;;;15.10;99.90;;;;;;5006318;28;20445;-71
2022/04/16 12:30:50;;;;;;;1.77;1.67;;;15.30;99.90;;;;;;5004211;28;20468;-70
2022/04/16 12:33:39;;;;;;;10.00;9.07;;;15.30;99.90;;;;;;5001984;28;20884;-71
2022/04/16 12:36:27;;;;;;;70.90;63.87;;;15.30;99.90;;;;;;5004622;28;21272;-70
2022/04/16 12:39:15;;;;;;;14.10;12.63;;;15.40;99.90;;;;;;5005509;28;20582;-71
2022/04/16 12:42:04;;;;;;;2.33;2.13;;;15.40;99.90;;;;;;5001607;28;20555;-71
2022/04/16 12:44:53;;;;;;;2.90;1.80;;;15.50;99.90;;;;;;5003059;28;20563;-71
2022/04/16 12:47:41;;;;;;;2.50;2.30;;;15.70;99.90;;;;;;5005698;28;20981;-71
2022/04/16 12:50:31;;;;;;;39.40;36.30;;;15.80;99.90;;;;;;5003433;28;20555;-71
2022/04/16 12:53:20;;;;;;;4.07;3.30;;;15.90;99.90;;;;;;5005301;28;20610;-71
2022/04/16 12:56:08;;;;;;;2.37;2.17;;;16.00;99.90;;;;;;5004578;28;20541;-72
2022/04/16 12:58:56;;;;;;;4.27;3.37;;;16.20;99.90;;;;;;5005258;28;20571;-71
2022/04/16 13:01:45;;;;;;;2.80;2.60;;;16.40;99.90;;;;;;5006909;28;21179;-71
2022/04/16 13:04:34;;;;;;;2.67;2.47;;;16.50;99.90;;;;;;5002117;28;20952;-71
2022/04/16 13:07:23;;;;;;;18.47;16.80;;;16.60;99.90;;;;;;5004352;28;20709;-71
2022/04/16 13:10:12;;;;;;;52.03;47.13;;;16.70;99.90;;;;;;5004767;28;20567;-71
2022/04/16 13:13:01;;;;;;;5.33;4.90;;;17.00;99.90;;;;;;5005543;28;20859;-71
2022/04/16 13:15:51;;;;;;;7.77;7.07;;;17.20;99.90;;;;;;5003559;28;20457;-71
2022/04/16 13:18:41;;;;;;;4.13;3.30;;;17.50;99.90;;;;;;5004233;28;20478;-71
2022/04/16 13:21:29;;;;;;;2.60;2.40;;;17.50;99.90;;;;;;5004158;28;20505;-71
2022/04/16 13:24:18;;;;;;;42.57;39.20;;;17.80;99.90;;;;;;5002461;28;20490;-71
2022/04/16 13:27:07;;;;;;;129.60;120.73;;;18.00;99.90;;;;;;5003758;28;20590;-71
2022/04/16 13:29:55;;;;;;;44.77;41.40;;;18.20;99.70;;;;;;5001578;28;20611;-71
2022/04/16 13:32:48;;;;;;;6.30;5.80;;;18.40;99.90;;;;;;5003960;28;20524;-71
2022/04/16 13:35:37;;;;;;;3.23;3.03;;;18.90;99.90;;;;;;5003086;28;20452;-71
2022/04/16 13:38:25;;;;;;;3.00;2.80;;;19.10;98.60;;;;;;5003594;28;20998;-71
2022/04/16 13:44:19;;;;;;;25.77;23.97;;;19.30;99.90;;;;;;5001271;28;20468;-71
2022/04/16 13:47:08;;;;;;;3.10;2.90;;;19.90;98.60;;;;;;5004487;28;20544;-71
2022/04/16 13:49:57;;;;;;;3.30;3.00;;;20.00;96.50;;;;;;5003249;28;20969;-71
2022/04/16 13:52:47;;;;;;;9.07;8.37;;;20.60;96.30;;;;;;5002365;28;20531;-71
2022/04/16 13:55:35;;;;;;;3.53;3.23;;;20.60;93.00;;;;;;5003408;28;20910;-71
2022/04/16 13:58:27;;;;;;;15.70;14.30;;;20.60;93.90;;;;;;5004329;28;20475;-71
2022/04/16 14:01:17;;;;;;;4.80;4.40;;;20.90;94.60;;;;;;5003135;28;20523;-71
2022/04/16 14:04:05;;;;;;;25.67;23.50;;;21.00;94.20;;;;;;5002363;28;20590;-71
2022/04/16 14:06:55;;;;;;;10.07;9.30;;;20.90;94.10;;;;;;5005994;28;20823;-71
2022/04/16 14:09:44;;;;;;;48.80;44.50;;;21.00;92.90;;;;;;5003696;28;20623;-71
2022/04/16 14:12:34;;;;;;;4.30;4.00;;;20.70;90.40;;;;;;5001321;28;20564;-72
2022/04/16 14:15:22;;;;;;;13.03;12.03;;;20.60;92.80;;;;;;5005733;28;20948;-71
2022/04/16 14:18:10;;;;;;;13.07;12.17;;;20.60;93.90;;;;;;5003192;28;20574;-72
2022/04/16 14:20:59;;;;;;;4.10;3.80;;;20.70;94.70;;;;;;4989984;28;20543;-71
2022/04/16 14:23:47;;;;;;;3.63;3.30;;;20.50;92.30;;;;;;5004014;28;20562;-71
2022/04/16 14:26:39;;;;;;;3.47;3.17;;;20.40;91.30;;;;;;5003843;28;20604;-71
2022/04/16 14:29:27;;;;;;;4.53;4.20;;;20.30;92.30;;;;;;5004177;28;21196;-71
2022/04/16 14:32:15;;;;;;;7.87;7.27;;;20.20;92.70;;;;;;5003999;28;20539;-71
2022/04/16 14:35:04;;;;;;;5.30;3.50;;;20.20;93.10;;;;;;5005250;28;21059;-71
2022/04/16 14:37:52;;;;;;;11.40;10.50;;;20.10;93.50;;;;;;5002609;28;20555;-71
2022/04/16 14:40:42;;;;;;;5.30;4.90;;;20.10;92.70;;;;;;5004212;28;20593;-72
2022/04/16 14:43:34;;;;;;;7.17;6.57;;;19.90;91.60;;;;;;5002844;28;21162;-72
2022/04/16 14:46:22;;;;;;;19.50;17.80;;;19.80;93.40;;;;;;5004114;28;20640;-71
2022/04/16 14:49:11;;;;;;;42.70;38.80;;;19.70;93.10;;;;;;5004298;28;20547;-71
2022/04/16 14:51:59;;;;;;;6.20;5.60;;;19.70;91.80;;;;;;5002456;28;20835;-72
2022/04/16 14:54:49;;;;;;;6.23;4.90;;;19.70;91.40;;;;;;4985884;28;20512;-71
2022/04/16 14:57:58;;;;;;;4.50;3.70;;;19.60;92.80;;;;;;4987059;28;20521;-71
2022/04/16 15:00:48;;;;;;;4.47;4.07;;;19.80;92.10;;;;;;4986775;28;20453;-71
2022/04/16 15:03:36;;;;;;;5.17;3.50;;;19.60;90.60;;;;;;4986517;28;21111;-71
2022/04/16 15:06:24;;;;;;;59.80;54.33;;;19.60;92.30;;;;;;4973179;28;20520;-71
2022/04/16 15:09:12;;;;;;;201.20;182.90;;;19.40;91.90;;;;;;4988467;28;20623;-70
2022/04/16 15:12:04;;;;;;;12.10;11.03;;;19.20;93.20;;;;;;4986402;28;20584;-71
2022/04/16 15:14:52;;;;;;;8.53;7.83;;;19.00;91.50;;;;;;5004545;28;20629;-71
2022/04/16 15:17:42;;;;;;;5.03;4.20;;;18.60;92.30;;;;;;5006963;28;20557;-71